createdAt,value
2017-09-11T00:00:12.868Z,54.30
2017-09-11T00:02:40.367Z,54.30
2017-09-11T00:05:07.887Z,54.30
2017-09-11T00:07:35.452Z,54.20
2017-09-11T00:10:02.971Z,54.10
2017-09-11T00:12:30.537Z,54.10
2017-09-11T00:14:58.069Z,54.20
2017-09-11T00:17:26.360Z,54.10
2017-09-11T00:19:53.955Z,54.10
2017-09-11T00:22:21.460Z,54.10
2017-09-11T00:24:49.747Z,54.10
2017-09-11T00:27:17.267Z,54.10
2017-09-11T00:29:44.814Z,54.30
2017-09-11T00:32:12.312Z,54.10
2017-09-11T00:34:39.872Z,54.10
2017-09-11T00:37:07.373Z,54.10
2017-09-11T00:39:34.982Z,54.10
2017-09-11T00:42:02.635Z,54.10
2017-09-11T00:44:30.206Z,54.20
2017-09-11T00:46:57.707Z,54.10
2017-09-11T00:49:25.195Z,54.20
2017-09-11T00:51:52.792Z,54.20
2017-09-11T00:54:20.320Z,54.20
2017-09-11T00:56:47.990Z,54.20
2017-09-11T00:59:15.638Z,54.10
2017-09-11T01:01:43.316Z,54.10
2017-09-11T01:04:10.816Z,54.70
2017-09-11T01:06:39.078Z,54.10
2017-09-11T01:09:06.619Z,54.10
2017-09-11T01:11:34.159Z,54.20
2017-09-11T01:14:01.791Z,54.20
2017-09-11T01:16:29.290Z,54.10
2017-09-11T01:18:56.783Z,54.20
2017-09-11T01:21:24.343Z,54.10
2017-09-11T01:23:51.834Z,54.10
2017-09-11T01:26:19.458Z,54.10
2017-09-11T01:28:46.954Z,54.10
2017-09-11T01:31:14.470Z,54.00
2017-09-11T01:33:42.743Z,54.00
2017-09-11T01:36:11.007Z,54.10
2017-09-11T01:38:39.278Z,54.20
2017-09-11T01:41:07.563Z,54.10
2017-09-11T01:43:35.055Z,54.10
2017-09-11T01:46:02.560Z,54.60
2017-09-11T01:48:30.092Z,54.10
2017-09-11T01:50:57.591Z,54.10
2017-09-11T01:53:25.094Z,54.10
2017-09-11T01:55:52.603Z,54.10
2017-09-11T01:58:20.143Z,54.10
2017-09-11T02:00:47.666Z,54.00
2017-09-11T02:03:15.375Z,54.10
2017-09-11T02:05:42.915Z,54.10
2017-09-11T02:08:11.193Z,54.00
2017-09-11T02:10:38.801Z,54.10
2017-09-11T02:13:06.298Z,54.10
2017-09-11T02:15:34.109Z,54.10
2017-09-11T02:18:01.738Z,54.00
2017-09-11T02:20:29.370Z,54.00
2017-09-11T02:22:56.870Z,54.00
2017-09-11T02:25:24.385Z,53.90
2017-09-11T02:27:52.667Z,54.10
2017-09-11T02:30:20.946Z,54.10
2017-09-11T02:32:48.506Z,54.10
2017-09-11T02:35:16.178Z,54.10
2017-09-11T02:37:43.831Z,54.00
2017-09-11T02:40:11.347Z,54.00
2017-09-11T02:42:39.616Z,54.00
2017-09-11T02:45:07.898Z,54.00
2017-09-11T02:47:36.158Z,54.00
2017-09-11T02:50:03.673Z,54.00
2017-09-11T02:52:31.430Z,54.10
2017-09-11T02:54:59.099Z,54.00
2017-09-11T02:57:26.599Z,54.00
2017-09-11T02:59:55.029Z,54.00
2017-09-11T03:02:22.642Z,54.00
2017-09-11T03:04:50.314Z,54.00
2017-09-11T03:07:18.005Z,54.00
2017-09-11T03:09:45.523Z,54.00
2017-09-11T03:12:13.805Z,54.60
2017-09-11T03:14:41.307Z,54.00
2017-09-11T03:17:08.831Z,54.00
2017-09-11T03:19:36.349Z,54.00
2017-09-11T03:22:04.619Z,54.10
2017-09-11T03:24:32.886Z,54.10
2017-09-11T03:27:01.297Z,54.10
2017-09-11T03:29:28.802Z,54.10
2017-09-11T03:31:56.411Z,54.50
2017-09-11T03:34:24.078Z,54.00
2017-09-11T03:36:51.575Z,53.90
2017-09-11T03:39:19.067Z,54.00
2017-09-11T03:41:46.646Z,54.00
2017-09-11T03:44:14.135Z,54.00
2017-09-11T03:46:41.743Z,54.10
2017-09-11T03:49:09.405Z,54.10
2017-09-11T03:51:36.914Z,54.10
2017-09-11T03:54:04.515Z,54.00
2017-09-11T03:56:32.016Z,54.00
2017-09-11T03:58:59.533Z,54.00
2017-09-11T04:01:27.024Z,54.00
2017-09-11T04:03:54.755Z,54.00
2017-09-11T04:06:22.247Z,54.00
2017-09-11T04:08:49.758Z,54.00
2017-09-11T04:11:17.315Z,54.00
2017-09-11T04:13:44.819Z,54.00
2017-09-11T04:16:12.340Z,54.00
2017-09-11T04:18:39.899Z,54.00
2017-09-11T04:21:07.415Z,54.00
2017-09-11T04:23:34.985Z,54.00
2017-09-11T04:26:02.519Z,54.00
2017-09-11T04:28:30.787Z,54.00
2017-09-11T04:30:59.196Z,54.00
2017-09-11T04:33:26.950Z,54.00
2017-09-11T04:35:54.464Z,54.00
2017-09-11T04:38:21.963Z,54.00
2017-09-11T04:40:49.479Z,54.00
2017-09-11T04:43:17.751Z,54.50
2017-09-11T04:45:46.163Z,54.50
2017-09-11T04:48:13.821Z,54.00
2017-09-11T04:50:41.495Z,54.00
2017-09-11T04:53:08.992Z,54.00
2017-09-11T04:55:36.506Z,54.00
2017-09-11T04:58:04.054Z,54.00
2017-09-11T05:00:31.702Z,54.00
2017-09-11T05:02:59.202Z,54.00
2017-09-11T05:05:26.815Z,54.00
2017-09-11T05:07:54.299Z,54.00
2017-09-11T05:10:21.870Z,54.00
2017-09-11T05:12:49.371Z,53.90
2017-09-11T05:15:16.899Z,53.90
2017-09-11T05:17:44.415Z,54.00
2017-09-11T05:20:11.977Z,54.00
2017-09-11T05:22:39.497Z,53.90
2017-09-11T05:25:07.092Z,53.90
2017-09-11T05:27:34.586Z,53.90
2017-09-11T05:30:02.865Z,54.00
2017-09-11T05:32:31.139Z,54.00
2017-09-11T05:34:59.410Z,54.00
2017-09-11T05:37:27.734Z,54.00
2017-09-11T05:39:55.305Z,54.00
2017-09-11T05:42:22.842Z,53.90
2017-09-11T05:44:50.396Z,54.00
2017-09-11T05:47:17.893Z,54.00
2017-09-11T05:49:45.415Z,53.90
2017-09-11T05:52:13.159Z,53.90
2017-09-11T05:54:40.807Z,53.80
2017-09-11T05:57:08.315Z,54.00
2017-09-11T05:59:35.820Z,54.00
2017-09-11T06:02:03.333Z,54.00
2017-09-11T06:04:31.045Z,54.00
2017-09-11T06:06:58.545Z,54.00
2017-09-11T06:09:26.830Z,54.00
2017-09-11T06:11:55.095Z,54.00
2017-09-11T06:14:22.587Z,54.00
2017-09-11T06:16:50.123Z,54.00
2017-09-11T06:19:17.646Z,54.10
2017-09-11T06:21:45.138Z,54.00
2017-09-11T06:24:13.404Z,54.00
2017-09-11T06:26:41.695Z,54.10
2017-09-11T06:29:09.258Z,54.10
2017-09-11T06:31:36.779Z,54.20
2017-09-11T06:34:05.037Z,54.30
2017-09-11T06:36:32.739Z,54.00
2017-09-11T06:39:00.336Z,54.00
2017-09-11T06:41:27.894Z,53.90
2017-09-11T06:43:55.434Z,54.00
2017-09-11T06:46:22.947Z,54.00
2017-09-11T06:48:51.207Z,54.10
2017-09-11T06:51:18.779Z,54.00
2017-09-11T06:53:46.330Z,54.00
2017-09-11T06:56:14.594Z,54.10
2017-09-11T06:58:42.096Z,54.10
2017-09-11T07:01:09.603Z,53.60
2017-09-11T07:03:37.296Z,54.10
2017-09-11T07:06:04.794Z,54.10
2017-09-11T07:08:32.286Z,54.00
2017-09-11T07:10:59.887Z,54.10
2017-09-11T07:13:44.125Z,54.10
2017-09-11T07:16:11.619Z,54.00
2017-09-11T07:18:39.137Z,54.10
2017-09-11T07:21:06.635Z,54.00
2017-09-11T07:23:34.154Z,54.20
2017-09-11T07:26:01.659Z,54.10
2017-09-11T07:28:29.175Z,54.10
2017-09-11T07:30:56.735Z,54.00
2017-09-11T07:33:24.369Z,54.10
2017-09-11T07:35:51.866Z,54.10
2017-09-11T07:38:19.379Z,54.10
2017-09-11T07:40:46.949Z,54.10
2017-09-11T07:43:14.459Z,54.00
2017-09-11T07:45:42.855Z,54.10
2017-09-11T07:48:10.362Z,54.10
2017-09-11T07:50:37.868Z,54.10
2017-09-11T07:53:05.458Z,54.10
2017-09-11T07:55:32.959Z,54.10
2017-09-11T07:58:00.546Z,54.10
2017-09-11T08:00:28.203Z,54.00
2017-09-11T08:02:55.875Z,54.10
2017-09-11T08:05:23.363Z,54.20
2017-09-11T08:07:50.863Z,54.10
2017-09-11T08:10:18.448Z,54.10
2017-09-11T08:12:46.131Z,54.10
2017-09-11T08:15:13.631Z,54.10
2017-09-11T08:17:41.131Z,54.10
2017-09-11T08:20:08.643Z,54.10
2017-09-11T08:22:36.142Z,54.10
2017-09-11T08:25:03.760Z,54.20
2017-09-11T08:27:31.293Z,54.20
2017-09-11T08:29:59.697Z,54.10
2017-09-11T08:32:27.208Z,54.10
2017-09-11T08:34:55.470Z,54.10
2017-09-11T08:37:22.970Z,54.10
2017-09-11T08:39:50.570Z,54.10
2017-09-11T08:42:18.194Z,54.10
2017-09-11T08:44:46.503Z,54.00
2017-09-11T08:47:14.004Z,54.00
2017-09-11T08:49:41.585Z,54.00
2017-09-11T08:52:09.243Z,54.00
2017-09-11T08:54:36.735Z,54.10
2017-09-11T08:57:05.006Z,54.60
2017-09-11T08:59:33.282Z,54.00
2017-09-11T09:02:00.784Z,54.00
2017-09-11T09:04:28.551Z,54.10
2017-09-11T09:06:56.199Z,54.00
2017-09-11T09:09:23.704Z,54.00
2017-09-11T09:11:51.199Z,54.20
2017-09-11T09:14:19.463Z,54.10
2017-09-11T09:16:47.740Z,54.10
2017-09-11T09:19:16.011Z,54.70
2017-09-11T09:21:43.615Z,54.10
2017-09-11T09:24:11.131Z,54.10
2017-09-11T09:26:38.671Z,54.10
2017-09-11T09:29:06.188Z,54.10
2017-09-11T09:31:33.686Z,54.10
2017-09-11T09:34:01.970Z,54.10
2017-09-11T09:36:30.374Z,54.10
2017-09-11T09:38:57.875Z,54.10
2017-09-11T09:41:25.499Z,54.10
2017-09-11T09:43:53.127Z,54.10
2017-09-11T09:46:20.666Z,54.20
2017-09-11T09:48:49.063Z,54.10
2017-09-11T09:51:16.558Z,54.10
2017-09-11T09:53:44.046Z,54.10
2017-09-11T09:56:12.320Z,54.20
2017-09-11T09:58:40.603Z,54.30
2017-09-11T10:01:08.877Z,54.20
2017-09-11T10:03:37.175Z,54.20
2017-09-11T10:06:04.670Z,54.20
2017-09-11T10:08:32.267Z,54.10
2017-09-11T10:10:59.763Z,54.10
2017-09-11T10:13:27.311Z,54.10
2017-09-11T10:15:54.819Z,54.20
2017-09-11T10:18:23.094Z,54.30
2017-09-11T10:20:51.352Z,54.20
2017-09-11T10:23:19.635Z,54.20
2017-09-11T10:25:47.909Z,54.10
2017-09-11T10:28:15.443Z,54.10
2017-09-11T10:30:43.151Z,54.10
2017-09-11T10:33:10.667Z,54.20
2017-09-11T10:35:38.935Z,54.20
2017-09-11T10:38:06.442Z,54.10
2017-09-11T10:40:33.963Z,54.20
2017-09-11T10:43:01.474Z,54.10
2017-09-11T10:45:29.009Z,54.10
2017-09-11T10:47:56.572Z,54.10
2017-09-11T10:50:24.088Z,54.10
2017-09-11T10:52:52.357Z,54.20
2017-09-11T10:55:20.640Z,54.20
2017-09-11T10:57:49.060Z,54.20
2017-09-11T11:00:16.558Z,54.20
2017-09-11T11:02:44.838Z,54.20
2017-09-11T11:05:13.244Z,54.20
2017-09-11T11:07:40.758Z,54.30
2017-09-11T11:10:09.019Z,54.20
2017-09-11T11:12:36.530Z,54.20
2017-09-11T11:15:04.056Z,54.20
2017-09-11T11:17:31.744Z,54.10
2017-09-11T11:19:59.258Z,54.20
2017-09-11T11:22:27.704Z,54.30
2017-09-11T11:24:55.208Z,54.30
2017-09-11T11:27:22.799Z,54.30
2017-09-11T11:29:50.306Z,54.20
2017-09-11T11:32:18.032Z,54.20
2017-09-11T11:34:45.526Z,54.30
2017-09-11T11:37:13.231Z,54.20
2017-09-11T11:39:40.743Z,54.30
2017-09-11T11:42:08.239Z,54.30
2017-09-11T11:44:35.735Z,54.20
2017-09-11T11:47:03.258Z,54.20
2017-09-11T11:49:30.756Z,54.20
2017-09-11T11:51:58.337Z,54.30
2017-09-11T11:54:25.995Z,54.40
2017-09-11T11:56:53.510Z,54.40
2017-09-11T11:59:21.936Z,54.40
2017-09-11T12:01:49.434Z,54.30
2017-09-11T12:04:16.932Z,54.30
2017-09-11T12:06:44.442Z,54.30
2017-09-11T12:09:11.970Z,54.20
2017-09-11T12:11:39.614Z,54.60
2017-09-11T12:14:07.119Z,54.40
2017-09-11T12:16:34.627Z,54.30
2017-09-11T12:19:02.388Z,54.40
2017-09-11T12:21:29.906Z,54.40
2017-09-11T12:23:58.167Z,54.40
2017-09-11T12:26:26.612Z,55.10
2017-09-11T12:28:54.167Z,54.40
2017-09-11T12:31:21.722Z,54.40
2017-09-11T12:33:49.397Z,54.40
2017-09-11T12:36:17.015Z,54.40
2017-09-11T12:38:44.539Z,54.40
2017-09-11T12:41:12.815Z,54.40
2017-09-11T12:43:41.087Z,54.40
2017-09-11T12:46:09.365Z,54.40
2017-09-11T12:48:37.634Z,54.40
2017-09-11T12:51:05.433Z,54.40
2017-09-11T12:53:33.093Z,54.40
2017-09-11T12:56:00.751Z,54.40
2017-09-11T12:58:28.247Z,54.40
2017-09-11T13:00:55.854Z,54.40
2017-09-11T13:03:23.352Z,54.40
2017-09-11T13:05:50.972Z,54.40
2017-09-11T13:08:18.464Z,54.40
2017-09-11T13:10:45.962Z,54.40
2017-09-11T13:13:13.559Z,55.00
2017-09-11T13:15:41.062Z,54.40
2017-09-11T13:18:09.320Z,54.50
2017-09-11T13:20:37.742Z,54.20
2017-09-11T13:23:05.246Z,54.40
2017-09-11T13:25:32.752Z,54.40
2017-09-11T13:28:00.241Z,54.40
2017-09-11T13:30:27.765Z,54.50
2017-09-11T13:32:55.283Z,54.50
2017-09-11T13:35:23.559Z,54.50
2017-09-11T13:37:51.087Z,54.50
2017-09-11T13:40:18.578Z,54.50
2017-09-11T13:42:46.355Z,54.50
2017-09-11T13:45:13.862Z,54.50
2017-09-11T13:47:41.359Z,54.40
2017-09-11T13:50:09.023Z,54.50
2017-09-11T13:52:36.525Z,54.50
2017-09-11T13:55:04.048Z,54.40
2017-09-11T13:57:31.609Z,54.50
2017-09-11T13:59:59.260Z,54.50
2017-09-11T14:02:26.903Z,54.40
2017-09-11T14:04:54.427Z,54.40
2017-09-11T14:07:22.695Z,54.70
2017-09-11T14:09:50.338Z,54.40
2017-09-11T14:12:17.835Z,54.40
2017-09-11T14:14:45.407Z,54.50
2017-09-11T14:17:13.075Z,54.50
2017-09-11T14:19:40.600Z,54.50
2017-09-11T14:22:09.002Z,54.50
2017-09-11T14:24:36.502Z,54.40
2017-09-11T14:27:03.999Z,54.50
2017-09-11T14:29:31.583Z,54.50
2017-09-11T14:31:59.215Z,54.40
2017-09-11T14:34:26.741Z,54.40
2017-09-11T14:36:54.255Z,54.50
2017-09-11T14:39:21.755Z,54.50
2017-09-11T14:41:49.272Z,54.40
2017-09-11T14:44:16.901Z,54.40
2017-09-11T14:46:44.417Z,54.40
2017-09-11T14:49:12.705Z,54.40
2017-09-11T14:51:40.962Z,54.50
2017-09-11T14:54:08.641Z,54.40
2017-09-11T14:56:36.155Z,54.50
2017-09-11T14:59:03.700Z,54.50
2017-09-11T15:01:31.221Z,54.50
2017-09-11T15:03:58.724Z,54.50
2017-09-11T15:06:26.427Z,54.50
2017-09-11T15:08:54.102Z,54.50
2017-09-11T15:11:21.609Z,54.50
2017-09-11T15:13:49.130Z,54.50
2017-09-11T15:16:16.659Z,54.50
2017-09-11T15:18:44.548Z,54.50
2017-09-11T15:21:12.194Z,54.50
2017-09-11T15:23:39.719Z,54.50
2017-09-11T15:26:07.239Z,54.40
2017-09-11T15:28:34.730Z,54.40
2017-09-11T15:31:02.242Z,54.40
2017-09-11T15:33:29.739Z,54.40
2017-09-11T15:35:58.011Z,54.40
2017-09-11T15:38:26.282Z,54.50
2017-09-11T15:40:54.708Z,54.50
2017-09-11T15:43:22.358Z,54.50
2017-09-11T15:45:49.894Z,54.40
2017-09-11T15:48:17.460Z,54.40
2017-09-11T15:50:44.986Z,54.40
2017-09-11T15:53:13.368Z,54.50
2017-09-11T15:55:41.047Z,54.50
2017-09-11T15:58:08.786Z,54.50
2017-09-11T16:00:37.192Z,54.60
2017-09-11T16:03:04.690Z,54.50
2017-09-11T16:05:32.967Z,54.50
2017-09-11T16:08:01.237Z,54.90
2017-09-11T16:10:28.846Z,54.50
2017-09-11T16:12:56.348Z,54.50
2017-09-11T16:15:24.629Z,54.50
2017-09-11T16:17:52.907Z,54.50
2017-09-11T16:20:21.324Z,54.50
2017-09-11T16:22:48.826Z,54.50
2017-09-11T16:25:16.324Z,54.50
2017-09-11T16:27:43.838Z,54.50
2017-09-11T16:30:11.356Z,54.40
2017-09-11T16:32:38.882Z,54.50
2017-09-11T16:35:06.652Z,54.40
2017-09-11T16:37:34.170Z,54.50
2017-09-11T16:40:01.665Z,54.50
2017-09-11T16:42:29.222Z,54.50
2017-09-11T16:44:56.886Z,54.40
2017-09-11T16:47:24.416Z,54.50
2017-09-11T16:49:51.932Z,54.60
2017-09-11T16:52:19.643Z,54.50
2017-09-11T16:54:47.157Z,54.50
2017-09-11T16:57:14.665Z,54.50
2017-09-11T16:59:42.238Z,54.40
2017-09-11T17:02:09.733Z,54.40
2017-09-11T17:04:38.019Z,55.20
2017-09-11T17:07:06.432Z,54.40
2017-09-11T17:09:34.073Z,54.40
2017-09-11T17:12:01.575Z,54.50
2017-09-11T17:14:29.187Z,54.50
2017-09-11T17:16:56.851Z,54.50
2017-09-11T17:19:24.607Z,54.50
2017-09-11T17:21:52.200Z,54.50
2017-09-11T17:24:19.826Z,54.40
2017-09-11T17:26:47.499Z,54.50
2017-09-11T17:29:15.155Z,54.40
2017-09-11T17:31:42.647Z,54.40
2017-09-11T17:34:10.161Z,54.40
2017-09-11T17:36:37.928Z,54.40
2017-09-11T17:39:05.427Z,54.50
2017-09-11T17:41:32.951Z,54.30
2017-09-11T17:44:00.510Z,54.40
2017-09-11T17:46:28.027Z,54.40
2017-09-11T17:49:22.461Z,54.40
2017-09-11T17:51:50.079Z,54.40
2017-09-11T17:54:17.739Z,54.40
2017-09-11T17:56:45.268Z,54.50
2017-09-11T17:59:13.682Z,54.50
2017-09-11T18:01:41.339Z,54.40
2017-09-11T18:04:08.844Z,54.50
2017-09-11T18:06:36.486Z,54.30
2017-09-11T18:09:03.995Z,54.40
2017-09-11T18:11:31.522Z,54.40
2017-09-11T18:13:59.223Z,54.50
2017-09-11T18:16:26.731Z,54.50
2017-09-11T18:18:55.018Z,54.50
2017-09-11T18:21:23.423Z,54.50
2017-09-11T18:23:51.094Z,54.40
2017-09-11T18:26:18.596Z,54.50
2017-09-11T18:28:46.178Z,54.50
2017-09-11T18:31:13.671Z,54.50
2017-09-11T18:33:41.219Z,54.50
2017-09-11T18:36:08.715Z,54.50
2017-09-11T18:38:36.219Z,54.50
2017-09-11T18:41:03.727Z,54.50
2017-09-11T18:43:31.228Z,54.50
2017-09-11T18:45:58.747Z,54.50
2017-09-11T18:48:26.252Z,54.50
2017-09-11T18:50:53.867Z,54.50
2017-09-11T18:53:21.366Z,54.50
2017-09-11T18:55:48.995Z,54.40
2017-09-11T18:58:16.602Z,54.50
2017-09-11T19:00:44.124Z,54.40
2017-09-11T19:03:11.623Z,54.50
2017-09-11T19:05:40.043Z,54.50
2017-09-11T19:08:07.707Z,54.50
2017-09-11T19:10:35.239Z,54.50
2017-09-11T19:13:03.515Z,54.50
2017-09-11T19:15:31.096Z,54.50
2017-09-11T19:17:58.975Z,54.40
2017-09-11T19:20:26.603Z,54.40
2017-09-11T19:22:54.234Z,54.40
2017-09-11T19:25:21.932Z,54.40
2017-09-11T19:27:49.460Z,54.40
2017-09-11T19:30:17.730Z,54.40
2017-09-11T19:32:46.015Z,54.40
2017-09-11T19:35:13.594Z,54.40
2017-09-11T19:37:41.239Z,54.40
2017-09-11T19:40:08.899Z,54.40
2017-09-11T19:42:36.759Z,54.40
2017-09-11T19:45:04.284Z,54.40
2017-09-11T19:47:31.870Z,54.40
2017-09-11T19:49:59.387Z,54.40
2017-09-11T19:52:27.691Z,54.80
2017-09-11T19:54:55.268Z,54.40
2017-09-11T19:57:22.762Z,54.30
2017-09-11T19:59:50.370Z,54.40
2017-09-11T20:02:18.038Z,54.30
2017-09-11T20:04:45.571Z,54.40
2017-09-11T20:07:13.954Z,54.30
2017-09-11T20:09:41.619Z,54.30
2017-09-11T20:12:09.310Z,54.30
2017-09-11T20:14:36.936Z,54.30
2017-09-11T20:17:04.441Z,54.30
2017-09-11T20:19:32.056Z,54.40
2017-09-11T20:21:59.560Z,54.40
2017-09-11T20:24:27.090Z,54.40
2017-09-11T20:26:54.703Z,54.30
2017-09-11T20:29:23.097Z,54.40
2017-09-11T20:31:50.771Z,54.40
2017-09-11T20:34:18.302Z,54.30
2017-09-11T20:36:46.068Z,54.30
2017-09-11T20:39:13.578Z,54.30
2017-09-11T20:41:41.093Z,54.30
2017-09-11T20:44:08.594Z,54.30
2017-09-11T20:46:37.121Z,54.30
2017-09-11T20:49:04.619Z,54.30
2017-09-11T20:51:32.218Z,54.30
2017-09-11T20:53:59.715Z,54.30
2017-09-11T20:56:27.237Z,54.30
2017-09-11T20:58:54.740Z,54.30
2017-09-11T21:01:22.295Z,54.30
2017-09-11T21:03:49.790Z,54.30
2017-09-11T21:06:18.114Z,54.30
2017-09-11T21:08:45.612Z,54.30
2017-09-11T21:11:13.143Z,54.30
2017-09-11T21:13:41.439Z,54.30
2017-09-11T21:16:09.751Z,54.20
2017-09-11T21:18:37.251Z,54.20
2017-09-11T21:21:04.769Z,54.10
2017-09-11T21:23:32.271Z,54.10
2017-09-11T21:26:00.539Z,54.20
2017-09-11T21:28:28.052Z,54.10
2017-09-11T21:30:55.554Z,54.70
2017-09-11T21:33:23.215Z,54.20
2017-09-11T21:35:50.715Z,54.20
2017-09-11T21:38:18.339Z,54.10
2017-09-11T21:40:45.851Z,54.10
2017-09-11T21:43:13.367Z,54.00
2017-09-11T21:45:40.880Z,54.00
2017-09-11T21:48:08.411Z,54.00
2017-09-11T21:50:36.782Z,54.00
2017-09-11T21:53:04.518Z,54.00
2017-09-11T21:55:32.010Z,54.10
2017-09-11T21:57:59.634Z,54.10
2017-09-11T22:00:27.160Z,54.00
2017-09-11T22:02:55.447Z,54.10
2017-09-11T22:05:23.032Z,54.00
2017-09-11T22:07:50.556Z,54.00
2017-09-11T22:10:18.133Z,54.00
2017-09-11T22:12:45.790Z,54.00
2017-09-11T22:15:13.287Z,54.10
2017-09-11T22:17:40.905Z,54.00
2017-09-11T22:20:08.398Z,54.00
2017-09-11T22:22:35.917Z,54.00
2017-09-11T22:25:03.419Z,53.90
2017-09-11T22:27:30.943Z,53.90
2017-09-11T22:29:58.577Z,53.90
2017-09-11T22:32:26.095Z,54.00
2017-09-11T22:34:54.370Z,54.10
2017-09-11T22:37:22.671Z,54.00
2017-09-11T22:39:50.264Z,54.00
2017-09-11T22:42:17.894Z,54.00
2017-09-11T22:44:45.395Z,54.00
2017-09-11T22:47:12.908Z,54.10
2017-09-11T22:49:40.411Z,54.00
2017-09-11T22:52:08.691Z,54.00
2017-09-11T22:54:36.955Z,54.00
2017-09-11T22:57:04.638Z,54.00
2017-09-11T22:59:32.138Z,54.00
2017-09-11T23:01:59.785Z,54.00
2017-09-11T23:04:27.294Z,54.10
2017-09-11T23:06:54.802Z,54.10
2017-09-11T23:09:22.298Z,54.00
2017-09-11T23:11:49.991Z,54.00
2017-09-11T23:14:17.651Z,54.00
2017-09-11T23:16:45.145Z,54.00
2017-09-11T23:19:12.670Z,54.00
2017-09-11T23:21:40.183Z,54.00
2017-09-11T23:24:07.880Z,54.00
2017-09-11T23:26:35.478Z,54.00
2017-09-11T23:29:02.966Z,54.00
2017-09-11T23:31:30.669Z,54.00
2017-09-11T23:33:58.170Z,54.00
2017-09-11T23:36:25.671Z,54.00
2017-09-11T23:38:53.210Z,54.20
2017-09-11T23:41:20.867Z,54.10
2017-09-11T23:43:48.399Z,54.10
2017-09-11T23:46:16.805Z,54.10
2017-09-11T23:48:44.402Z,54.10
2017-09-11T23:51:11.910Z,54.10
2017-09-11T23:53:39.587Z,54.20
2017-09-11T23:56:07.084Z,54.10
2017-09-11T23:58:34.599Z,54.60
